Etusivu
METAR-TAF:

METAR-TAF

Lentoasemat :

Bacău, Romania

Leveyspiiri: 46-35N, Pituuspiiri: 026-58E, korkeus merenpinnasta: 184 m

Tämänhetkinen sää

Tämä raportti tehtiin 29 minuuttia sitten, kello 12.30 UTC
Tuuli 4 kn idästä/koillisesta
Lämpötila 31°C
Kosteus 59%
Ilmanpaine 1013 hPa
Näkyvyys 10 km tai enemmän
Hajanaisia pilviä 4600 ft:n korkeudessa

METAR: LRBC 251230Z 06004KT 9999 SCT046 31/22 Q1013

Aika: 15:59 (12:59 UTC)

Sääennuste

Tämä raportti tehtiin 1 tunti ja 59 minuuttia sitten, kello 11.00 UTC
Ennuste voimassa 25. päivästä klo 12 UTC - 25. päivään klo 21 UTC
Tuuli 4 kn eri suunnista
Näkyvyys 10 km tai enemmän
Hajanaisia pilviä 4000 ft:n korkeudessa

TAF: LRBC 251100Z 2512/2521 VRB04KT 9999 SCT040

Säähavainnot ja -ennusteet yli 4000 lentoasemalta (METAR- ja TAF-raportit).

Käytössä olevat sääasemat on merkitty karttaan keltaisilla ja punaisilla pisteillä.

Aseta hiiri pisteen päälle nähdäksesi sääaseman nimen.

Klikkaa sitten nähdäksesi säähavainnot ja -ennusteet.

Kartan vaihtaminen: klikkaa mustalla rastilla varustettuja vihreitä pisteitä, niin voit zoomata sisään; viivalla varustettua vihreää pistettä, niin voit zoomata ulos tai vihreitä nuolia, niin pääset viereisille kartoille.


METAR-TAF: